sensor_id;sensor_type;location;lat;lon;timestamp;pressure;altitude;pressure_sealevel;temperature;humidity
24666;BME280;29726;53.532;-1.478;2023-05-16T00:00:09;101396.25;;;18.55;83.76
24666;BME280;29726;53.532;-1.478;2023-05-16T00:02:53;101390.06;;;18.51;84.17
24666;BME280;29726;53.532;-1.478;2023-05-16T00:05:38;101375.75;;;18.35;84.02
24666;BME280;29726;53.532;-1.478;2023-05-16T00:08:22;101387.41;;;18.43;83.85
24666;BME280;29726;53.532;-1.478;2023-05-16T00:11:06;101390.44;;;18.39;83.70
24666;BME280;29726;53.532;-1.478;2023-05-16T00:13:49;101385.53;;;18.34;83.59
24666;BME280;29726;53.532;-1.478;2023-05-16T00:16:34;101377.50;;;18.27;83.55
24666;BME280;29726;53.532;-1.478;2023-05-16T00:19:19;101383.91;;;18.28;83.47
24666;BME280;29726;53.532;-1.478;2023-05-16T00:22:04;101379.97;;;18.20;83.71
24666;BME280;29726;53.532;-1.478;2023-05-16T00:24:48;101392.53;;;18.19;83.52
24666;BME280;29726;53.532;-1.478;2023-05-16T00:27:33;101383.00;;;18.16;83.44
24666;BME280;29726;53.532;-1.478;2023-05-16T00:30:18;101386.06;;;18.13;83.57
24666;BME280;29726;53.532;-1.478;2023-05-16T00:33:02;101373.13;;;18.06;83.52
24666;BME280;29726;53.532;-1.478;2023-05-16T00:35:46;101384.44;;;18.06;83.46
24666;BME280;29726;53.532;-1.478;2023-05-16T00:38:30;101374.84;;;17.98;83.41
24666;BME280;29726;53.532;-1.478;2023-05-16T00:41:15;101376.09;;;17.97;83.16
24666;BME280;29726;53.532;-1.478;2023-05-16T00:43:59;101379.94;;;17.94;83.26
24666;BME280;29726;53.532;-1.478;2023-05-16T00:46:43;101368.31;;;17.87;83.09
24666;BME280;29726;53.532;-1.478;2023-05-16T00:49:28;101315.47;;;17.47;83.25
24666;BME280;29726;53.532;-1.478;2023-05-16T00:52:12;101379.53;;;17.81;83.26
24666;BME280;29726;53.532;-1.478;2023-05-16T00:54:56;101370.50;;;17.77;83.00
24666;BME280;29726;53.532;-1.478;2023-05-16T00:57:40;101366.06;;;17.71;83.21
24666;BME280;29726;53.532;-1.478;2023-05-16T01:00:25;101371.72;;;17.71;83.12
24666;BME280;29726;53.532;-1.478;2023-05-16T01:03:09;101380.66;;;17.69;83.16
24666;BME280;29726;53.532;-1.478;2023-05-16T01:05:53;101376.22;;;17.63;83.00
24666;BME280;29726;53.532;-1.478;2023-05-16T01:08:37;101368.47;;;17.58;83.05
24666;BME280;29726;53.532;-1.478;2023-05-16T01:11:30;101365.88;;;17.54;82.95
24666;BME280;29726;53.532;-1.478;2023-05-16T01:14:47;101373.56;;;17.54;82.97
24666;BME280;29726;53.532;-1.478;2023-05-16T01:23:59;101364.09;;;17.37;82.81
24666;BME280;29726;53.532;-1.478;2023-05-16T01:26:47;101368.38;;;17.32;82.70
24666;BME280;29726;53.532;-1.478;2023-05-16T01:29:32;101360.31;;;17.25;82.82
24666;BME280;29726;53.532;-1.478;2023-05-16T01:32:16;101365.75;;;17.29;82.74
24666;BME280;29726;53.532;-1.478;2023-05-16T01:35:00;101364.34;;;17.19;82.65
24666;BME280;29726;53.532;-1.478;2023-05-16T01:38:14;101371.59;;;17.25;82.75
24666;BME280;29726;53.532;-1.478;2023-05-16T01:41:18;101355.78;;;17.13;82.53
24666;BME280;29726;53.532;-1.478;2023-05-16T01:44:10;101367.38;;;17.15;82.55
24666;BME280;29726;53.532;-1.478;2023-05-16T01:46:58;101367.09;;;17.13;82.63
24666;BME280;29726;53.532;-1.478;2023-05-16T01:50:07;101362.06;;;17.03;82.39
24666;BME280;29726;53.532;-1.478;2023-05-16T01:52:57;101366.16;;;17.02;82.35
24666;BME280;29726;53.532;-1.478;2023-05-16T01:55:56;101353.72;;;16.94;82.35
24666;BME280;29726;53.532;-1.478;2023-05-16T01:58:41;101373.25;;;16.97;82.47
24666;BME280;29726;53.532;-1.478;2023-05-16T02:01:26;101362.88;;;16.89;82.27
24666;BME280;29726;53.532;-1.478;2023-05-16T02:04:10;101363.44;;;16.93;82.25
24666;BME280;29726;53.532;-1.478;2023-05-16T02:06:54;101354.03;;;16.81;82.30
24666;BME280;29726;53.532;-1.478;2023-05-16T02:09:38;101351.91;;;16.76;82.43
24666;BME280;29726;53.532;-1.478;2023-05-16T02:12:23;101355.22;;;16.75;82.28
24666;BME280;29726;53.532;-1.478;2023-05-16T02:15:08;101364.44;;;16.75;82.20
24666;BME280;29726;53.532;-1.478;2023-05-16T02:17:53;101345.81;;;16.64;82.22
24666;BME280;29726;53.532;-1.478;2023-05-16T02:20:37;101367.78;;;16.74;82.11
24666;BME280;29726;53.532;-1.478;2023-05-16T02:23:22;101365.16;;;16.71;82.31
24666;BME280;29726;53.532;-1.478;2023-05-16T02:26:06;101367.88;;;16.65;82.09
24666;BME280;29726;53.532;-1.478;2023-05-16T02:28:50;101300.81;;;16.26;82.03
24666;BME280;29726;53.532;-1.478;2023-05-16T02:31:34;101369.34;;;16.61;82.16
24666;BME280;29726;53.532;-1.478;2023-05-16T02:34:19;101345.53;;;16.47;82.14
24666;BME280;29726;53.532;-1.478;2023-05-16T02:37:03;101362.53;;;16.53;81.96
24666;BME280;29726;53.532;-1.478;2023-05-16T02:39:48;101371.00;;;16.53;82.06
24666;BME280;29726;53.532;-1.478;2023-05-16T02:42:32;101355.66;;;16.39;81.87
24666;BME280;29726;53.532;-1.478;2023-05-16T02:45:16;101363.91;;;16.43;81.89
24666;BME280;29726;53.532;-1.478;2023-05-16T02:48:00;101376.75;;;16.44;81.86
24666;BME280;29726;53.532;-1.478;2023-05-16T02:50:44;101366.94;;;16.39;81.99
24666;BME280;29726;53.532;-1.478;2023-05-16T02:53:29;101369.94;;;16.36;81.75
24666;BME280;29726;53.532;-1.478;2023-05-16T02:56:13;101362.34;;;16.27;81.73
24666;BME280;29726;53.532;-1.478;2023-05-16T02:58:57;101364.66;;;16.29;81.75
24666;BME280;29726;53.532;-1.478;2023-05-16T03:01:41;101364.66;;;16.29;81.74
24666;BME280;29726;53.532;-1.478;2023-05-16T03:04:25;101361.66;;;16.18;81.61
24666;BME280;29726;53.532;-1.478;2023-05-16T03:07:09;101356.38;;;16.11;81.65
24666;BME280;29726;53.532;-1.478;2023-05-16T03:09:53;101367.28;;;16.18;81.75
24666;BME280;29726;53.532;-1.478;2023-05-16T03:12:37;101366.41;;;16.12;81.60
24666;BME280;29726;53.532;-1.478;2023-05-16T03:15:21;101355.06;;;16.06;81.67
24666;BME280;29726;53.532;-1.478;2023-05-16T03:18:05;101368.06;;;16.04;81.59
24666;BME280;29726;53.532;-1.478;2023-05-16T03:20:49;101373.22;;;16.05;81.62
24666;BME280;29726;53.532;-1.478;2023-05-16T03:23:35;101356.66;;;15.98;81.72
24666;BME280;29726;53.532;-1.478;2023-05-16T03:26:19;101373.09;;;16.00;81.64
24666;BME280;29726;53.532;-1.478;2023-05-16T03:29:03;101370.47;;;15.96;81.58
24666;BME280;29726;53.532;-1.478;2023-05-16T03:31:47;101360.66;;;15.92;81.68
24666;BME280;29726;53.532;-1.478;2023-05-16T03:34:31;101364.44;;;15.89;81.64
24666;BME280;29726;53.532;-1.478;2023-05-16T03:37:15;101329.63;;;15.63;81.58
24666;BME280;29726;53.532;-1.478;2023-05-16T03:39:59;101366.66;;;15.85;81.58
24666;BME280;29726;53.532;-1.478;2023-05-16T03:42:44;101363.75;;;15.79;81.58
24666;BME280;29726;53.532;-1.478;2023-05-16T03:45:29;101356.75;;;15.75;81.58
24666;BME280;29726;53.532;-1.478;2023-05-16T03:48:13;101374.41;;;15.75;81.60
24666;BME280;29726;53.532;-1.478;2023-05-16T03:50:57;101364.09;;;15.72;81.58
24666;BME280;29726;53.532;-1.478;2023-05-16T03:53:41;101363.81;;;15.70;81.54
24666;BME280;29726;53.532;-1.478;2023-05-16T03:56:25;101359.94;;;15.68;81.59
24666;BME280;29726;53.532;-1.478;2023-05-16T03:59:09;101354.38;;;15.59;81.56
24666;BME280;29726;53.532;-1.478;2023-05-16T04:01:53;101350.00;;;15.58;81.64
24666;BME280;29726;53.532;-1.478;2023-05-16T04:04:37;101365.91;;;15.61;81.66
24666;BME280;29726;53.532;-1.478;2023-05-16T04:07:21;101365.03;;;15.55;81.55
24666;BME280;29726;53.532;-1.478;2023-05-16T04:10:05;101354.31;;;15.44;81.52
24666;BME280;29726;53.532;-1.478;2023-05-16T04:12:49;101368.22;;;15.48;81.88
24666;BME280;29726;53.532;-1.478;2023-05-16T04:15:34;101375.00;;;15.41;81.57
24666;BME280;29726;53.532;-1.478;2023-05-16T04:18:18;101377.63;;;15.45;81.64
24666;BME280;29726;53.532;-1.478;2023-05-16T04:21:02;101369.53;;;15.38;81.69
24666;BME280;29726;53.532;-1.478;2023-05-16T04:23:46;101386.25;;;15.41;81.79
24666;BME280;29726;53.532;-1.478;2023-05-16T04:26:30;101392.34;;;15.40;81.73
24666;BME280;29726;53.532;-1.478;2023-05-16T04:29:14;101384.75;;;15.31;81.70
24666;BME280;29726;53.532;-1.478;2023-05-16T04:31:58;101376.34;;;15.22;81.82
24666;BME280;29726;53.532;-1.478;2023-05-16T04:34:42;101369.66;;;15.20;81.77
24666;BME280;29726;53.532;-1.478;2023-05-16T04:37:29;101357.53;;;15.05;81.68
24666;BME280;29726;53.532;-1.478;2023-05-16T04:40:14;101386.81;;;15.22;81.73
24666;BME280;29726;53.532;-1.478;2023-05-16T04:42:58;101393.03;;;15.26;81.78
24666;BME280;29726;53.532;-1.478;2023-05-16T04:45:42;101401.66;;;15.22;81.65
24666;BME280;29726;53.532;-1.478;2023-05-16T04:48:26;101391.34;;;15.19;81.68
24666;BME280;29726;53.532;-1.478;2023-05-16T04:51:10;101383.28;;;15.12;81.74
24666;BME280;29726;53.532;-1.478;2023-05-16T04:53:54;101388.72;;;15.16;81.85
24666;BME280;29726;53.532;-1.478;2023-05-16T04:56:38;101379.88;;;15.08;81.65
24666;BME280;29726;53.532;-1.478;2023-05-16T04:59:23;101380.78;;;15.05;81.75
24666;BME280;29726;53.532;-1.478;2023-05-16T05:02:07;101391.88;;;15.09;81.84
24666;BME280;29726;53.532;-1.478;2023-05-16T05:04:51;101378.84;;;14.97;81.87
24666;BME280;29726;53.532;-1.478;2023-05-16T05:07:35;101392.84;;;15.06;81.89
24666;BME280;29726;53.532;-1.478;2023-05-16T05:10:19;101394.09;;;15.05;81.83
24666;BME280;29726;53.532;-1.478;2023-05-16T05:13:03;101386.03;;;14.98;81.87
24666;BME280;29726;53.532;-1.478;2023-05-16T05:15:47;101393.50;;;15.01;81.94
24666;BME280;29726;53.532;-1.478;2023-05-16T05:18:33;101367.03;;;14.84;81.97
24666;BME280;29726;53.532;-1.478;2023-05-16T05:21:17;101396.94;;;14.96;81.96
24666;BME280;29726;53.532;-1.478;2023-05-16T05:24:03;101395.88;;;14.94;82.09
24666;BME280;29726;53.532;-1.478;2023-05-16T05:26:47;101356.34;;;14.65;81.84
24666;BME280;29726;53.532;-1.478;2023-05-16T05:29:31;101394.84;;;14.82;82.13
24666;BME280;29726;53.532;-1.478;2023-05-16T05:32:15;101369.91;;;14.66;82.11
24666;BME280;29726;53.532;-1.478;2023-05-16T05:34:59;101402.31;;;14.85;82.14
24666;BME280;29726;53.532;-1.478;2023-05-16T05:37:43;101403.09;;;14.86;82.10
24666;BME280;29726;53.532;-1.478;2023-05-16T05:40:27;101399.97;;;14.84;82.18
24666;BME280;29726;53.532;-1.478;2023-05-16T05:43:10;101396.09;;;14.81;82.27
24666;BME280;29726;53.532;-1.478;2023-05-16T05:45:55;101405.28;;;14.82;82.38
24666;BME280;29726;53.532;-1.478;2023-05-16T05:48:39;101407.31;;;14.81;82.65
24666;BME280;29726;53.532;-1.478;2023-05-16T05:51:23;101410.13;;;14.81;82.56
24666;BME280;29726;53.532;-1.478;2023-05-16T05:54:07;101410.78;;;14.76;82.67
24666;BME280;29726;53.532;-1.478;2023-05-16T05:56:52;101414.00;;;14.84;82.86
24666;BME280;29726;53.532;-1.478;2023-05-16T05:59:36;101424.50;;;14.83;82.83
24666;BME280;29726;53.532;-1.478;2023-05-16T06:02:19;101423.25;;;14.84;83.18
24666;BME280;29726;53.532;-1.478;2023-05-16T06:05:04;101420.13;;;14.82;83.17
24666;BME280;29726;53.532;-1.478;2023-05-16T06:07:48;101433.53;;;14.87;83.35
24666;BME280;29726;53.532;-1.478;2023-05-16T06:10:32;101430.72;;;14.87;83.56
24666;BME280;29726;53.532;-1.478;2023-05-16T06:13:16;101417.19;;;14.77;83.37
24666;BME280;29726;53.532;-1.478;2023-05-16T06:16:00;101425.44;;;14.80;83.37
24666;BME280;29726;53.532;-1.478;2023-05-16T06:18:44;101435.88;;;14.89;83.68
24666;BME280;29726;53.532;-1.478;2023-05-16T06:21:28;101412.66;;;14.79;83.63
24666;BME280;29726;53.532;-1.478;2023-05-16T06:24:12;101431.00;;;14.98;83.39
24666;BME280;29726;53.532;-1.478;2023-05-16T06:26:56;101428.50;;;15.00;83.42
24666;BME280;29726;53.532;-1.478;2023-05-16T06:29:40;101434.72;;;15.04;83.52
24666;BME280;29726;53.532;-1.478;2023-05-16T06:32:24;101417.34;;;15.05;83.79
24666;BME280;29726;53.532;-1.478;2023-05-16T06:35:08;101421.09;;;15.11;83.79
24666;BME280;29726;53.532;-1.478;2023-05-16T06:37:52;101424.97;;;15.14;83.91
24666;BME280;29726;53.532;-1.478;2023-05-16T06:40:36;101430.59;;;15.14;84.07
24666;BME280;29726;53.532;-1.478;2023-05-16T06:43:20;101429.94;;;15.19;84.01
24666;BME280;29726;53.532;-1.478;2023-05-16T06:46:04;101436.78;;;15.27;84.07
24666;BME280;29726;53.532;-1.478;2023-05-16T06:48:49;101441.03;;;15.31;84.35
24666;BME280;29726;53.532;-1.478;2023-05-16T06:51:33;101434.63;;;15.31;84.33
24666;BME280;29726;53.532;-1.478;2023-05-16T06:54:17;101439.13;;;15.37;84.51
24666;BME280;29726;53.532;-1.478;2023-05-16T06:57:01;101426.59;;;15.38;84.86
24666;BME280;29726;53.532;-1.478;2023-05-16T06:59:47;101434.69;;;15.45;84.83
24666;BME280;29726;53.532;-1.478;2023-05-16T07:02:31;101442.75;;;15.52;85.00
24666;BME280;29726;53.532;-1.478;2023-05-16T07:05:15;101400.56;;;15.29;85.13
24666;BME280;29726;53.532;-1.478;2023-05-16T07:07:59;101422.97;;;15.47;85.71
24666;BME280;29726;53.532;-1.478;2023-05-16T07:10:43;101441.88;;;15.70;86.01
24666;BME280;29726;53.532;-1.478;2023-05-16T07:13:26;101437.31;;;15.72;86.72
24666;BME280;29726;53.532;-1.478;2023-05-16T07:16:11;101403.66;;;15.54;87.06
24666;BME280;29726;53.532;-1.478;2023-05-16T07:18:55;101433.78;;;15.86;87.35
24666;BME280;29726;53.532;-1.478;2023-05-16T07:21:39;101437.19;;;15.90;87.55
24666;BME280;29726;53.532;-1.478;2023-05-16T07:24:23;101437.88;;;16.00;87.50
24666;BME280;29726;53.532;-1.478;2023-05-16T07:27:07;101444.41;;;16.06;87.36
24666;BME280;29726;53.532;-1.478;2023-05-16T07:29:51;101442.47;;;16.12;87.37
24666;BME280;29726;53.532;-1.478;2023-05-16T07:32:35;101430.72;;;16.13;87.41
24666;BME280;29726;53.532;-1.478;2023-05-16T07:35:19;101446.38;;;16.29;87.51
24666;BME280;29726;53.532;-1.478;2023-05-16T07:38:04;101432.50;;;16.25;87.50
24666;BME280;29726;53.532;-1.478;2023-05-16T07:40:48;101447.22;;;16.44;87.31
24666;BME280;29726;53.532;-1.478;2023-05-16T07:43:32;101440.91;;;16.49;87.29
24666;BME280;29726;53.532;-1.478;2023-05-16T07:46:17;101439.75;;;16.55;87.39
24666;BME280;29726;53.532;-1.478;2023-05-16T07:49:01;101444.28;;;16.67;87.54
24666;BME280;29726;53.532;-1.478;2023-05-16T07:51:45;101447.03;;;16.76;88.22
24666;BME280;29726;53.532;-1.478;2023-05-16T07:54:29;101444.00;;;16.79;88.57
24666;BME280;29726;53.532;-1.478;2023-05-16T07:57:14;101445.84;;;16.97;88.86
24666;BME280;29726;53.532;-1.478;2023-05-16T07:59:58;101446.19;;;17.04;88.79
24666;BME280;29726;53.532;-1.478;2023-05-16T08:02:42;101457.16;;;17.17;89.27
24666;BME280;29726;53.532;-1.478;2023-05-16T08:05:26;101439.66;;;17.13;89.17
24666;BME280;29726;53.532;-1.478;2023-05-16T08:08:10;101463.88;;;17.34;89.21
24666;BME280;29726;53.532;-1.478;2023-05-16T08:10:54;101441.28;;;17.34;89.49
24666;BME280;29726;53.532;-1.478;2023-05-16T08:13:37;101454.09;;;17.49;89.42
24666;BME280;29726;53.532;-1.478;2023-05-16T08:16:21;101412.06;;;17.37;89.74
24666;BME280;29726;53.532;-1.478;2023-05-16T08:19:06;101447.19;;;17.70;89.90
24666;BME280;29726;53.532;-1.478;2023-05-16T08:21:50;101435.22;;;17.75;90.09
24666;BME280;29726;53.532;-1.478;2023-05-16T08:24:34;101439.72;;;17.87;90.06
24666;BME280;29726;53.532;-1.478;2023-05-16T08:27:18;101439.28;;;17.94;90.20
24666;BME280;29726;53.532;-1.478;2023-05-16T08:30:03;101432.94;;;17.99;90.50
24666;BME280;29726;53.532;-1.478;2023-05-16T08:32:47;101434.38;;;18.15;90.24
24666;BME280;29726;53.532;-1.478;2023-05-16T08:35:32;101437.78;;;18.19;90.76
24666;BME280;29726;53.532;-1.478;2023-05-16T08:38:18;101428.66;;;18.29;90.73
24666;BME280;29726;53.532;-1.478;2023-05-16T08:41:02;101422.00;;;18.32;90.85
24666;BME280;29726;53.532;-1.478;2023-05-16T08:43:46;101426.28;;;18.48;90.92
24666;BME280;29726;53.532;-1.478;2023-05-16T08:46:32;101434.88;;;18.58;91.37
24666;BME280;29726;53.532;-1.478;2023-05-16T08:49:19;101438.78;;;18.66;91.27
24666;BME280;29726;53.532;-1.478;2023-05-16T08:52:07;101437.06;;;18.74;91.65
24666;BME280;29726;53.532;-1.478;2023-05-16T08:54:52;101428.63;;;18.80;91.72
24666;BME280;29726;53.532;-1.478;2023-05-16T08:57:37;101428.16;;;18.87;91.88
24666;BME280;29726;53.532;-1.478;2023-05-16T09:00:22;101417.38;;;18.91;91.93
24666;BME280;29726;53.532;-1.478;2023-05-16T09:03:06;101423.41;;;19.04;91.87
24666;BME280;29726;53.532;-1.478;2023-05-16T09:05:51;101427.38;;;19.17;92.04
24666;BME280;29726;53.532;-1.478;2023-05-16T09:08:35;101422.31;;;19.27;92.54
24666;BME280;29726;53.532;-1.478;2023-05-16T09:11:19;101414.59;;;19.27;92.65
24666;BME280;29726;53.532;-1.478;2023-05-16T09:14:04;101399.38;;;19.25;92.48
24666;BME280;29726;53.532;-1.478;2023-05-16T09:17:05;101425.56;;;19.56;92.84
24666;BME280;29726;53.532;-1.478;2023-05-16T09:19:50;101440.81;;;19.64;92.83
24666;BME280;29726;53.532;-1.478;2023-05-16T09:22:37;101437.78;;;19.73;92.92
24666;BME280;29726;53.532;-1.478;2023-05-16T09:25:26;101431.09;;;19.76;93.13
24666;BME280;29726;53.532;-1.478;2023-05-16T09:28:11;101439.38;;;19.91;93.63
24666;BME280;29726;53.532;-1.478;2023-05-16T09:30:55;101431.94;;;19.99;93.68
24666;BME280;29726;53.532;-1.478;2023-05-16T09:33:42;101433.00;;;20.07;93.58
24666;BME280;29726;53.532;-1.478;2023-05-16T09:36:26;101434.63;;;20.19;93.55
24666;BME280;29726;53.532;-1.478;2023-05-16T09:39:14;101436.44;;;20.27;93.77
24666;BME280;29726;53.532;-1.478;2023-05-16T09:41:58;101436.47;;;20.32;94.41
24666;BME280;29726;53.532;-1.478;2023-05-16T09:44:50;101451.69;;;20.46;94.21
24666;BME280;29726;53.532;-1.478;2023-05-16T09:47:34;101441.88;;;20.52;94.51
24666;BME280;29726;53.532;-1.478;2023-05-16T09:50:19;101433.91;;;20.56;94.65
24666;BME280;29726;53.532;-1.478;2023-05-16T09:53:05;101432.38;;;20.66;94.62
24666;BME280;29726;53.532;-1.478;2023-05-16T09:55:58;101455.09;;;20.77;94.59
24666;BME280;29726;53.532;-1.478;2023-05-16T09:58:44;101435.50;;;20.85;94.87
24666;BME280;29726;53.532;-1.478;2023-05-16T10:01:29;101445.81;;;20.93;94.82
24666;BME280;29726;53.532;-1.478;2023-05-16T10:04:13;101439.13;;;21.02;95.12
24666;BME280;29726;53.532;-1.478;2023-05-16T10:07:01;101435.75;;;21.09;95.25
24666;BME280;29726;53.532;-1.478;2023-05-16T10:09:46;101434.19;;;21.13;95.36
24666;BME280;29726;53.532;-1.478;2023-05-16T10:12:33;101436.50;;;21.20;95.34
24666;BME280;29726;53.532;-1.478;2023-05-16T10:15:18;101429.53;;;21.27;95.36
24666;BME280;29726;53.532;-1.478;2023-05-16T10:18:05;101422.81;;;21.30;95.54
24666;BME280;29726;53.532;-1.478;2023-05-16T10:20:54;101430.03;;;21.42;95.40
24666;BME280;29726;53.532;-1.478;2023-05-16T10:23:46;101426.88;;;21.51;95.65
24666;BME280;29726;53.532;-1.478;2023-05-16T10:26:31;101423.00;;;21.59;95.68
24666;BME280;29726;53.532;-1.478;2023-05-16T10:29:17;101420.94;;;21.60;95.83
24666;BME280;29726;53.532;-1.478;2023-05-16T10:32:02;101441.84;;;21.73;96.01
24666;BME280;29726;53.532;-1.478;2023-05-16T10:34:46;101442.84;;;21.81;96.10
24666;BME280;29726;53.532;-1.478;2023-05-16T10:37:30;101447.47;;;21.84;96.11
24666;BME280;29726;53.532;-1.478;2023-05-16T10:40:17;101451.06;;;21.90;96.14
24666;BME280;29726;53.532;-1.478;2023-05-16T10:43:02;101456.22;;;21.97;96.06
24666;BME280;29726;53.532;-1.478;2023-05-16T10:45:53;101444.56;;;22.00;96.36
24666;BME280;29726;53.532;-1.478;2023-05-16T10:48:39;101454.38;;;22.05;96.27
24666;BME280;29726;53.532;-1.478;2023-05-16T10:51:34;101455.13;;;22.11;96.22
24666;BME280;29726;53.532;-1.478;2023-05-16T10:54:19;101449.16;;;22.14;96.22
24666;BME280;29726;53.532;-1.478;2023-05-16T10:57:16;101454.06;;;22.14;96.25
24666;BME280;29726;53.532;-1.478;2023-05-16T11:00:07;101443.19;;;22.18;96.67
24666;BME280;29726;53.532;-1.478;2023-05-16T11:03:04;101438.03;;;22.11;96.54
24666;BME280;29726;53.532;-1.478;2023-05-16T11:05:51;101433.38;;;22.13;96.11
24666;BME280;29726;53.532;-1.478;2023-05-16T11:09:19;101449.13;;;22.20;95.19
24666;BME280;29726;53.532;-1.478;2023-05-16T11:12:01;101440.06;;;22.21;95.72
24666;BME280;29726;53.532;-1.478;2023-05-16T11:14:50;101435.66;;;22.26;96.33
24666;BME280;29726;53.532;-1.478;2023-05-16T11:17:38;101436.41;;;22.26;96.54
24666;BME280;29726;53.532;-1.478;2023-05-16T11:20:25;101446.47;;;22.33;96.71
24666;BME280;29726;53.532;-1.478;2023-05-16T11:26:00;101449.56;;;22.35;95.08
24666;BME280;29726;53.532;-1.478;2023-05-16T11:28:48;101456.31;;;22.37;94.51
24666;BME280;29726;53.532;-1.478;2023-05-16T11:31:33;101449.03;;;22.36;94.54
24666;BME280;29726;53.532;-1.478;2023-05-16T11:34:18;101450.84;;;22.39;95.00
24666;BME280;29726;53.532;-1.478;2023-05-16T11:37:02;101443.84;;;22.46;96.32
24666;BME280;29726;53.532;-1.478;2023-05-16T11:39:47;101424.72;;;22.41;96.50
24666;BME280;29726;53.532;-1.478;2023-05-16T11:42:36;101379.81;;;22.17;96.66
24666;BME280;29726;53.532;-1.478;2023-05-16T11:45:21;101434.25;;;22.49;94.64
24666;BME280;29726;53.532;-1.478;2023-05-16T11:48:08;101448.44;;;22.54;94.33
24666;BME280;29726;53.532;-1.478;2023-05-16T11:50:52;101439.38;;;22.50;93.18
24666;BME280;29726;53.532;-1.478;2023-05-16T11:53:36;101450.75;;;22.56;93.18
24666;BME280;29726;53.532;-1.478;2023-05-16T11:56:21;101453.84;;;22.58;92.67
24666;BME280;29726;53.532;-1.478;2023-05-16T11:59:06;101459.53;;;22.58;93.18
24666;BME280;29726;53.532;-1.478;2023-05-16T12:01:50;101460.81;;;22.57;92.65
24666;BME280;29726;53.532;-1.478;2023-05-16T12:04:34;101456.19;;;22.54;93.10
24666;BME280;29726;53.532;-1.478;2023-05-16T12:07:27;101451.81;;;22.53;92.67
24666;BME280;29726;53.532;-1.478;2023-05-16T12:10:13;101456.91;;;22.60;92.82
24666;BME280;29726;53.532;-1.478;2023-05-16T12:12:57;101452.84;;;22.55;92.09
24666;BME280;29726;53.532;-1.478;2023-05-16T12:15:41;101451.81;;;22.53;92.06
24666;BME280;29726;53.532;-1.478;2023-05-16T12:18:26;101418.50;;;22.37;92.80
24666;BME280;29726;53.532;-1.478;2023-05-16T12:21:11;101464.47;;;22.57;92.86
24666;BME280;29726;53.532;-1.478;2023-05-16T12:23:55;101460.31;;;22.58;92.44
24666;BME280;29726;53.532;-1.478;2023-05-16T12:26:42;101469.09;;;22.60;91.76
24666;BME280;29726;53.532;-1.478;2023-05-16T12:29:27;101436.63;;;22.39;91.67
24666;BME280;29726;53.532;-1.478;2023-05-16T12:32:12;101473.75;;;22.58;92.07
24666;BME280;29726;53.532;-1.478;2023-05-16T12:34:56;101458.53;;;22.55;91.87
24666;BME280;29726;53.532;-1.478;2023-05-16T12:37:44;101458.53;;;22.55;91.32
24666;BME280;29726;53.532;-1.478;2023-05-16T12:40:29;101456.69;;;22.58;91.80
24666;BME280;29726;53.532;-1.478;2023-05-16T12:43:21;101453.84;;;22.58;92.09
24666;BME280;29726;53.532;-1.478;2023-05-16T12:46:09;101457.72;;;22.60;91.40
24666;BME280;29726;53.532;-1.478;2023-05-16T12:49:03;101453.81;;;22.63;91.81
24666;BME280;29726;53.532;-1.478;2023-05-16T12:51:50;101449.66;;;22.64;91.87
24666;BME280;29726;53.532;-1.478;2023-05-16T12:54:34;101454.59;;;22.64;91.90
24666;BME280;29726;53.532;-1.478;2023-05-16T12:57:18;101451.97;;;22.66;92.02
24666;BME280;29726;53.532;-1.478;2023-05-16T13:00:02;101447.34;;;22.63;91.71
24666;BME280;29726;53.532;-1.478;2023-05-16T13:02:47;101447.28;;;22.68;91.74
24666;BME280;29726;53.532;-1.478;2023-05-16T13:05:31;101447.75;;;22.72;91.99
24666;BME280;29726;53.532;-1.478;2023-05-16T13:08:16;101436.69;;;22.69;92.50
24666;BME280;29726;53.532;-1.478;2023-05-16T13:11:00;101443.59;;;22.79;92.25
24666;BME280;29726;53.532;-1.478;2023-05-16T13:13:44;101427.03;;;22.77;92.18
24666;BME280;29726;53.532;-1.478;2023-05-16T13:16:28;101433.19;;;22.87;93.01
24666;BME280;29726;53.532;-1.478;2023-05-16T13:19:12;101426.19;;;22.88;93.17
24666;BME280;29726;53.532;-1.478;2023-05-16T13:21:55;101423.25;;;22.93;93.19
24666;BME280;29726;53.532;-1.478;2023-05-16T13:24:40;101433.53;;;23.02;91.92
24666;BME280;29726;53.532;-1.478;2023-05-16T13:27:24;101441.56;;;23.03;91.91
24666;BME280;29726;53.532;-1.478;2023-05-16T13:30:08;101443.59;;;23.08;91.16
24666;BME280;29726;53.532;-1.478;2023-05-16T13:32:53;101441.81;;;23.05;91.62
24666;BME280;29726;53.532;-1.478;2023-05-16T13:35:37;101446.19;;;23.12;91.21
24666;BME280;29726;53.532;-1.478;2023-05-16T13:38:20;101448.00;;;23.09;91.54
24666;BME280;29726;53.532;-1.478;2023-05-16T13:41:05;101450.03;;;23.14;91.84
24666;BME280;29726;53.532;-1.478;2023-05-16T13:43:49;101411.81;;;22.99;91.84
24666;BME280;29726;53.532;-1.478;2023-05-16T13:46:33;101456.72;;;23.22;92.29
24666;BME280;29726;53.532;-1.478;2023-05-16T13:49:17;101453.31;;;23.24;91.07
24666;BME280;29726;53.532;-1.478;2023-05-16T13:52:01;101441.41;;;23.25;90.82
24666;BME280;29726;53.532;-1.478;2023-05-16T13:54:45;101438.84;;;23.22;90.01
24666;BME280;29726;53.532;-1.478;2023-05-16T13:57:29;101447.28;;;23.33;90.31
24666;BME280;29726;53.532;-1.478;2023-05-16T14:00:14;101441.28;;;23.36;90.97
24666;BME280;29726;53.532;-1.478;2023-05-16T14:02:58;101439.91;;;23.43;91.52
24666;BME280;29726;53.532;-1.478;2023-05-16T14:05:42;101438.31;;;23.47;91.96
24666;BME280;29726;53.532;-1.478;2023-05-16T14:08:26;101436.47;;;23.50;91.83
24666;BME280;29726;53.532;-1.478;2023-05-16T14:11:10;101442.63;;;23.54;91.26
24666;BME280;29726;53.532;-1.478;2023-05-16T14:13:53;101443.66;;;23.56;91.41
24666;BME280;29726;53.532;-1.478;2023-05-16T14:16:37;101434.59;;;23.58;91.61
24666;BME280;29726;53.532;-1.478;2023-05-16T14:19:21;101434.03;;;23.59;91.04
24666;BME280;29726;53.532;-1.478;2023-05-16T14:22:05;101431.88;;;23.65;91.73